Time;durP1;ratioP1;P1;durP2;ratioP2;P2;SDS_P1;SDS_P2;PMS_P1;PMS_P2;Temp;Humidity;BMP_temperature;BMP_pressure;BME280_temperature;BME280_humidity;BME280_pressure;Samples;Min_cycle;Max_cycle;Signal;HPM_P1;HPM_P2
2023/01/25 00:02:10;;;;;;;27.17;15.77;;;;;2.40;100198.00;;;;4938458;29;20052;-62
2023/01/25 00:04:37;;;;;;;24.88;15.90;;;;;2.40;100195.00;;;;4938794;29;20043;-62
2023/01/25 00:07:03;;;;;;;25.05;16.35;;;;;2.40;100205.00;;;;4938387;29;20048;-62
2023/01/25 00:09:30;;;;;;;25.73;16.05;;;;;2.40;100201.00;;;;4938853;29;20054;-62
2023/01/25 00:11:57;;;;;;;26.20;15.88;;;;;2.40;100199.00;;;;4938248;29;20064;-62
2023/01/25 00:14:23;;;;;;;23.13;14.00;;;;;2.40;100190.00;;;;4937182;29;20047;-61
2023/01/25 00:16:50;;;;;;;20.05;13.90;;;;;2.40;100196.00;;;;4937342;29;20111;-61
2023/01/25 00:19:17;;;;;;;21.17;13.50;;;;;2.30;100190.00;;;;4920727;29;20232;-62
2023/01/25 00:21:44;;;;;;;18.75;12.85;;;;;2.30;100176.00;;;;4920077;29;20412;-61
2023/01/25 00:24:13;;;;;;;23.98;14.30;;;;;2.20;100176.00;;;;4934475;29;20059;-61
2023/01/25 00:26:42;;;;;;;23.30;14.43;;;;;2.20;100165.00;;;;4935501;29;20561;-62
2023/01/25 00:29:13;;;;;;;22.13;14.40;;;;;2.30;100174.00;;;;4935323;29;20472;-61
2023/01/25 00:31:44;;;;;;;23.05;14.38;;;;;2.20;100171.00;;;;4935318;29;20579;-62
2023/01/25 00:34:23;;;;;;;19.20;13.50;;;;;2.20;100169.00;;;;4917559;29;20110;-61
2023/01/25 00:37:00;;;;;;;20.17;13.25;;;;;2.20;100169.00;;;;4918257;29;20044;-62
2023/01/25 00:39:27;;;;;;;24.00;14.40;;;;;2.10;100161.00;;;;4935153;29;20046;-61
2023/01/25 00:41:54;;;;;;;19.98;13.40;;;;;2.10;100155.00;;;;4934877;29;20047;-62
2023/01/25 00:44:22;;;;;;;21.77;13.55;;;;;2.10;100147.00;;;;4917069;29;20844;-61
2023/01/25 00:46:48;;;;;;;22.40;14.73;;;;;2.10;100155.00;;;;4902014;29;20071;-62
2023/01/25 00:49:24;;;;;;;20.10;13.73;;;;;2.10;100141.00;;;;4917561;29;20048;-62
2023/01/25 00:51:52;;;;;;;21.65;14.30;;;;;2.10;100148.00;;;;4917491;29;20056;-61
2023/01/25 00:54:19;;;;;;;21.48;13.75;;;;;2.20;100155.00;;;;4917184;29;20138;-61
2023/01/25 00:56:55;;;;;;;24.13;15.32;;;;;2.30;100148.00;;;;4935853;29;20472;-62
2023/01/25 00:59:23;;;;;;;22.63;14.87;;;;;2.20;100154.00;;;;4918664;29;20121;-61
2023/01/25 01:01:51;;;;;;;24.45;15.38;;;;;2.20;100151.00;;;;4935687;29;20099;-61
2023/01/25 01:04:19;;;;;;;23.65;15.75;;;;;2.30;100139.00;;;;4921915;29;20047;-61
2023/01/25 01:06:46;;;;;;;23.77;15.90;;;;;2.20;100136.00;;;;4924357;29;20051;-61
2023/01/25 01:09:15;;;;;;;27.25;16.27;;;;;2.20;100142.00;;;;4924668;29;20047;-61
2023/01/25 01:11:42;;;;;;;25.58;16.42;;;;;2.10;100141.00;;;;4925502;29;20086;-61
2023/01/25 01:14:09;;;;;;;26.75;17.13;;;;;2.10;100141.00;;;;4925337;29;20409;-62
2023/01/25 01:16:36;;;;;;;28.48;17.27;;;;;2.10;100126.00;;;;4941830;29;20465;-61
2023/01/25 01:19:02;;;;;;;32.00;18.63;;;;;2.10;100129.00;;;;4924004;29;20051;-62
2023/01/25 01:21:29;;;;;;;26.88;16.35;;;;;2.00;100133.00;;;;4940769;29;20051;-62
2023/01/25 01:23:56;;;;;;;26.70;16.48;;;;;2.10;100142.00;;;;4924662;29;20051;-61
2023/01/25 01:26:24;;;;;;;25.58;17.20;;;;;2.10;100133.00;;;;4941817;29;20044;-62
2023/01/25 01:28:50;;;;;;;29.85;17.95;;;;;2.10;100134.00;;;;4942839;29;20055;-63
2023/01/25 01:31:21;;;;;;;26.73;16.23;;;;;2.10;100131.00;;;;4923901;29;20055;-61
2023/01/25 01:33:57;;;;;;;25.10;16.83;;;;;2.10;100132.00;;;;4908212;29;20432;-62
2023/01/25 01:36:26;;;;;;;28.25;17.42;;;;;2.00;100136.00;;;;4938369;29;20074;-62
2023/01/25 01:38:53;;;;;;;29.10;18.50;;;;;2.10;100130.00;;;;4938352;29;20047;-63
2023/01/25 01:41:20;;;;;;;24.85;15.60;;;;;2.10;100146.00;;;;4920368;29;20500;-62
2023/01/25 01:43:49;;;;;;;29.95;18.55;;;;;2.10;100137.00;;;;4920471;29;20062;-62
2023/01/25 01:46:38;;;;;;;28.95;17.77;;;;;2.10;100142.00;;;;4937017;29;20044;-63
2023/01/25 01:49:16;;;;;;;26.13;17.77;;;;;2.20;100147.00;;;;4920511;29;20500;-61
2023/01/25 01:51:53;;;;;;;29.40;17.27;;;;;2.20;100144.00;;;;4920343;29;20051;-64
2023/01/25 01:54:30;;;;;;;29.42;16.30;;;;;2.10;100132.00;;;;4919802;29;20060;-61
2023/01/25 01:57:01;;;;;;;31.40;17.90;;;;;2.00;100132.00;;;;4920226;29;20481;-61
2023/01/25 01:59:35;;;;;;;29.45;16.98;;;;;2.00;100132.00;;;;4920156;29;20417;-61
2023/01/25 02:02:02;;;;;;;27.75;17.58;;;;;2.00;100130.00;;;;4937645;29;20410;-61
2023/01/25 02:04:29;;;;;;;29.35;17.83;;;;;2.00;100121.00;;;;4919855;29;20401;-61
2023/01/25 02:07:10;;;;;;;32.75;18.35;;;;;1.90;100114.00;;;;4921799;29;20153;-62
2023/01/25 02:09:37;;;;;;;29.77;18.58;;;;;2.00;100106.00;;;;4922363;29;20055;-62
2023/01/25 02:12:06;;;;;;;27.95;17.65;;;;;2.00;100109.00;;;;4921432;29;20051;-62
2023/01/25 02:14:33;;;;;;;29.23;17.75;;;;;2.00;100106.00;;;;4920834;29;20044;-61
2023/01/25 02:17:00;;;;;;;29.33;17.77;;;;;2.00;100100.00;;;;4921329;29;20605;-62
2023/01/25 02:19:51;;;;;;;27.13;18.15;;;;;2.10;100103.00;;;;4920390;29;20134;-62
2023/01/25 02:22:30;;;;;;;36.80;19.95;;;;;2.10;100105.00;;;;4920512;29;20051;-62
2023/01/25 02:25:12;;;;;;;28.08;18.30;;;;;2.10;100099.00;;;;4936418;29;20519;-62
2023/01/25 02:27:48;;;;;;;27.00;17.00;;;;;2.10;100097.00;;;;4919282;29;20398;-62
2023/01/25 02:30:15;;;;;;;32.42;18.35;;;;;2.10;100101.00;;;;4919306;29;20047;-62
2023/01/25 02:32:42;;;;;;;30.95;19.55;;;;;2.20;100094.00;;;;4918990;29;20456;-62
2023/01/25 02:35:34;;;;;;;28.38;17.65;;;;;2.10;100100.00;;;;4918501;29;20043;-61
2023/01/25 02:38:01;;;;;;;29.55;17.70;;;;;2.10;100099.00;;;;4936206;29;20535;-62
2023/01/25 02:40:31;;;;;;;32.30;19.67;;;;;2.10;100097.00;;;;4918867;29;20412;-63
2023/01/25 02:42:58;;;;;;;31.85;19.48;;;;;2.10;100108.00;;;;4918844;29;20416;-63
2023/01/25 02:45:28;;;;;;;28.20;18.35;;;;;2.10;100099.00;;;;4935420;29;20159;-63
2023/01/25 02:47:55;;;;;;;26.23;18.20;;;;;2.10;100110.00;;;;4935920;29;20054;-63
2023/01/25 02:50:21;;;;;;;31.35;19.77;;;;;2.20;100104.00;;;;4918856;29;20072;-61
2023/01/25 02:52:48;;;;;;;32.95;19.85;;;;;2.20;100108.00;;;;4936085;29;20055;-62
2023/01/25 02:55:15;;;;;;;33.10;20.17;;;;;2.20;100106.00;;;;4918410;29;20048;-63
2023/01/25 02:57:43;;;;;;;31.92;18.85;;;;;2.10;100105.00;;;;4918683;29;20055;-63
2023/01/25 03:00:11;;;;;;;35.22;20.30;;;;;2.10;100096.00;;;;4918756;29;20048;-62
2023/01/25 03:02:38;;;;;;;31.65;19.55;;;;;2.20;100097.00;;;;4918554;29;20051;-62
2023/01/25 03:05:05;;;;;;;31.20;18.30;;;;;2.20;100094.00;;;;4935127;29;20105;-62
2023/01/25 03:07:32;;;;;;;29.65;18.17;;;;;2.20;100097.00;;;;4935875;29;20416;-62
2023/01/25 03:09:58;;;;;;;29.83;17.60;;;;;2.10;100088.00;;;;4918468;29;20047;-62
2023/01/25 03:12:25;;;;;;;34.28;18.52;;;;;2.00;100083.00;;;;4918611;29;20059;-63
2023/01/25 03:14:52;;;;;;;29.08;17.70;;;;;2.10;100095.00;;;;4917855;29;20059;-62
2023/01/25 03:17:19;;;;;;;26.67;17.85;;;;;2.00;100087.00;;;;4918900;29;20523;-62
2023/01/25 03:19:45;;;;;;;30.88;18.23;;;;;1.90;100094.00;;;;4919020;29;20094;-62
2023/01/25 03:22:12;;;;;;;32.30;19.80;;;;;1.90;100096.00;;;;4918582;29;20413;-62
2023/01/25 03:24:39;;;;;;;28.98;17.65;;;;;1.90;100091.00;;;;4917866;29;20047;-62
2023/01/25 03:27:13;;;;;;;28.40;16.63;;;;;1.90;100094.00;;;;4918022;29;20083;-62
2023/01/25 03:29:46;;;;;;;29.60;17.60;;;;;1.90;100086.00;;;;4918568;29;20048;-62
2023/01/25 03:32:18;;;;;;;29.73;17.65;;;;;1.90;100086.00;;;;4918952;29;20465;-62
2023/01/25 03:34:44;;;;;;;36.15;18.00;;;;;1.90;100090.00;;;;4918195;29;20146;-62
2023/01/25 03:37:12;;;;;;;27.63;18.02;;;;;1.90;100081.00;;;;4918682;29;20048;-62
2023/01/25 03:39:40;;;;;;;28.38;17.50;;;;;1.90;100078.00;;;;4918694;29;20473;-62
2023/01/25 03:42:08;;;;;;;29.15;17.75;;;;;1.90;100077.00;;;;4935609;29;20036;-63
2023/01/25 03:44:34;;;;;;;27.48;17.63;;;;;1.90;100073.00;;;;4935212;29;20044;-63
2023/01/25 03:47:02;;;;;;;28.50;17.83;;;;;1.90;100075.00;;;;4918645;29;20115;-63
2023/01/25 03:49:29;;;;;;;30.88;18.17;;;;;1.90;100063.00;;;;4902592;29;20098;-62
2023/01/25 03:51:57;;;;;;;29.13;17.95;;;;;1.90;100078.00;;;;4917855;29;20071;-63
2023/01/25 03:54:32;;;;;;;29.40;17.75;;;;;1.90;100074.00;;;;4917474;29;20082;-63
2023/01/25 03:56:59;;;;;;;30.00;18.10;;;;;2.00;100078.00;;;;4917702;29;20652;-63
2023/01/25 03:59:26;;;;;;;32.58;18.20;;;;;2.00;100077.00;;;;4934841;29;20040;-63
2023/01/25 04:01:54;;;;;;;24.75;17.00;;;;;2.00;100065.00;;;;4917781;29;20051;-63
2023/01/25 04:04:21;;;;;;;26.83;17.30;;;;;2.00;100060.00;;;;4917506;29;20052;-63
2023/01/25 04:06:48;;;;;;;29.85;18.67;;;;;2.10;100063.00;;;;4918093;29;20075;-63
2023/01/25 04:09:16;;;;;;;28.75;17.77;;;;;2.10;100065.00;;;;4902397;29;20048;-63
2023/01/25 04:11:49;;;;;;;27.80;16.60;;;;;2.00;100064.00;;;;4918008;29;20147;-62
2023/01/25 04:14:17;;;;;;;29.67;18.48;;;;;2.10;100062.00;;;;4917480;29;20136;-61
2023/01/25 04:17:04;;;;;;;29.23;17.67;;;;;2.20;100070.00;;;;4917876;29;20051;-62
2023/01/25 04:19:40;;;;;;;26.63;16.50;;;;;2.20;100067.00;;;;4917984;29;20044;-62
2023/01/25 04:22:11;;;;;;;27.30;17.05;;;;;2.20;100069.00;;;;4917904;29;20052;-62
2023/01/25 04:24:38;;;;;;;27.70;17.08;;;;;2.20;100069.00;;;;4917376;29;20078;-62
2023/01/25 04:27:05;;;;;;;28.00;17.70;;;;;2.10;100052.00;;;;4917764;29;20483;-62
2023/01/25 04:29:38;;;;;;;26.52;16.17;;;;;2.10;100065.00;;;;4917899;29;20134;-62
2023/01/25 04:32:12;;;;;;;25.80;16.73;;;;;2.10;100051.00;;;;4917551;29;20047;-61
2023/01/25 04:34:39;;;;;;;27.45;16.45;;;;;2.10;100051.00;;;;4917449;29;20505;-62
2023/01/25 04:37:11;;;;;;;24.13;15.13;;;;;2.10;100046.00;;;;4917485;29;20052;-62
2023/01/25 04:39:48;;;;;;;26.00;15.75;;;;;2.00;100049.00;;;;4923424;29;20044;-62
2023/01/25 04:42:14;;;;;;;30.30;16.58;;;;;2.00;100042.00;;;;4924048;29;20138;-62
2023/01/25 04:44:44;;;;;;;28.15;17.42;;;;;2.00;100049.00;;;;4923355;29;20048;-62
2023/01/25 04:47:12;;;;;;;21.95;15.18;;;;;2.00;100046.00;;;;4923863;29;20086;-62
2023/01/25 04:49:38;;;;;;;24.20;15.32;;;;;1.90;100040.00;;;;4924028;29;20048;-62
2023/01/25 04:52:05;;;;;;;23.85;16.00;;;;;1.90;100042.00;;;;4923951;29;20505;-62
2023/01/25 04:54:32;;;;;;;27.02;16.65;;;;;1.90;100049.00;;;;4923270;29;20056;-62
2023/01/25 04:56:59;;;;;;;27.55;17.85;;;;;2.00;100058.00;;;;4923945;29;20099;-62
2023/01/25 04:59:25;;;;;;;27.48;17.48;;;;;2.00;100055.00;;;;4924020;29;20424;-62
2023/01/25 05:01:53;;;;;;;26.27;17.40;;;;;2.00;100047.00;;;;4923552;29;20050;-62
2023/01/25 05:04:19;;;;;;;28.75;17.80;;;;;2.00;100050.00;;;;4923436;29;20457;-62
2023/01/25 05:06:48;;;;;;;24.35;16.40;;;;;2.00;100046.00;;;;4924058;29;20402;-62
2023/01/25 05:09:16;;;;;;;28.05;18.80;;;;;2.00;100050.00;;;;4923992;29;20052;-62
2023/01/25 05:11:44;;;;;;;28.77;18.13;;;;;1.90;100046.00;;;;4924420;29;20079;-61
2023/01/25 05:14:24;;;;;;;33.20;18.25;;;;;1.90;100054.00;;;;4923662;29;20052;-61
2023/01/25 05:16:51;;;;;;;28.33;17.98;;;;;1.90;100041.00;;;;4923838;29;20047;-61
2023/01/25 05:19:18;;;;;;;32.38;18.75;;;;;1.90;100037.00;;;;4924135;29;20051;-61
2023/01/25 05:21:58;;;;;;;28.95;16.55;;;;;1.80;100038.00;;;;4923887;29;20047;-61
2023/01/25 05:24:31;;;;;;;27.48;17.10;;;;;1.80;100030.00;;;;4923301;29;20079;-61
2023/01/25 05:27:02;;;;;;;29.27;18.90;;;;;1.80;100029.00;;;;4923725;29;20056;-61
2023/01/25 05:29:49;;;;;;;32.35;17.92;;;;;1.80;100020.00;;;;4926232;29;20055;-61
2023/01/25 05:32:20;;;;;;;31.15;17.77;;;;;1.80;100022.00;;;;4923584;29;20056;-61
2023/01/25 05:34:47;;;;;;;27.63;16.60;;;;;1.80;100022.00;;;;4942133;29;20054;-61
2023/01/25 05:37:17;;;;;;;30.20;18.55;;;;;1.70;100019.00;;;;4927420;29;20214;-62
2023/01/25 05:39:46;;;;;;;29.00;16.65;;;;;1.70;100021.00;;;;4928770;29;20457;-62
2023/01/25 05:42:15;;;;;;;32.08;17.88;;;;;1.80;100017.00;;;;4927652;29;20421;-62
2023/01/25 05:44:43;;;;;;;34.80;19.13;;;;;1.80;100016.00;;;;4942913;29;20058;-62
2023/01/25 05:47:15;;;;;;;36.05;18.42;;;;;1.90;100016.00;;;;4923613;29;20058;-62
2023/01/25 05:49:42;;;;;;;35.80;19.70;;;;;1.90;100022.00;;;;4922070;29;20048;-61
2023/01/25 05:52:15;;;;;;;31.95;18.02;;;;;1.90;100024.00;;;;4920584;29;20078;-61
2023/01/25 05:54:43;;;;;;;28.20;17.13;;;;;1.90;100015.00;;;;4920152;29;20050;-62
2023/01/25 05:57:15;;;;;;;30.77;18.92;;;;;1.90;100022.00;;;;4920924;29;20421;-62
2023/01/25 05:59:42;;;;;;;32.97;19.20;;;;;1.90;100011.00;;;;4920275;29;20138;-62
2023/01/25 06:02:11;;;;;;;31.55;18.33;;;;;2.00;100012.00;;;;4920207;29;20047;-62
2023/01/25 06:04:39;;;;;;;32.08;18.15;;;;;2.00;100014.00;;;;4919878;29;20115;-61
2023/01/25 06:07:08;;;;;;;29.73;17.73;;;;;2.00;100005.00;;;;4920573;29;20107;-62
2023/01/25 06:09:35;;;;;;;28.70;18.15;;;;;2.00;100010.00;;;;4937745;29;20238;-62
2023/01/25 06:12:04;;;;;;;26.83;16.85;;;;;2.00;99997.00;;;;4920165;29;20048;-63
2023/01/25 06:14:30;;;;;;;30.75;17.92;;;;;2.00;99999.00;;;;4936825;29;20043;-61
2023/01/25 06:16:57;;;;;;;30.50;18.63;;;;;2.00;99998.00;;;;4937451;29;20047;-63
2023/01/25 06:19:42;;;;;;;29.20;16.95;;;;;1.90;99994.00;;;;4920258;29;20059;-62
2023/01/25 06:22:21;;;;;;;26.40;16.73;;;;;1.90;99994.00;;;;4938050;29;20047;-63
2023/01/25 06:24:48;;;;;;;27.70;16.92;;;;;1.90;99996.00;;;;4936987;29;20062;-62
2023/01/25 06:27:15;;;;;;;27.08;15.25;;;;;1.90;99989.00;;;;4937436;29;20500;-61
2023/01/25 06:29:42;;;;;;;25.02;14.88;;;;;1.80;100000.00;;;;4920178;29;20107;-62
2023/01/25 06:32:09;;;;;;;25.05;15.35;;;;;1.80;99990.00;;;;4936777;29;20445;-62
2023/01/25 06:34:35;;;;;;;25.85;15.88;;;;;1.80;99999.00;;;;4936395;29;20060;-61
2023/01/25 06:37:02;;;;;;;25.10;15.82;;;;;1.80;99992.00;;;;4919889;29;20138;-63
2023/01/25 06:39:29;;;;;;;28.77;16.00;;;;;1.90;99990.00;;;;4920073;29;20054;-61
2023/01/25 06:41:55;;;;;;;26.50;16.73;;;;;1.80;99990.00;;;;4936646;29;20040;-62
2023/01/25 06:44:22;;;;;;;28.80;15.50;;;;;1.80;99994.00;;;;4936358;29;20512;-61
2023/01/25 06:46:48;;;;;;;28.73;17.10;;;;;1.80;99993.00;;;;4936710;29;20675;-61
2023/01/25 06:49:15;;;;;;;28.85;16.95;;;;;1.80;99991.00;;;;4919466;29;20151;-62
2023/01/25 06:51:41;;;;;;;28.83;16.95;;;;;1.80;99993.00;;;;4936535;29;20126;-62
2023/01/25 06:54:08;;;;;;;29.17;16.25;;;;;1.90;100004.00;;;;4936081;29;20052;-61
2023/01/25 06:56:35;;;;;;;27.02;16.33;;;;;1.90;99994.00;;;;4919768;29;20122;-62
2023/01/25 06:59:02;;;;;;;24.58;14.45;;;;;1.90;100000.00;;;;4919407;29;20056;-61
2023/01/25 07:01:29;;;;;;;27.27;16.17;;;;;1.90;99998.00;;;;4936005;29;20039;-61
2023/01/25 07:03:57;;;;;;;25.52;16.08;;;;;1.90;100004.00;;;;4936550;29;20063;-62
2023/01/25 07:06:25;;;;;;;28.25;15.63;;;;;1.90;100006.00;;;;4935719;29;20412;-62
2023/01/25 07:08:52;;;;;;;28.52;16.80;;;;;1.90;99998.00;;;;4936339;29;20058;-62
2023/01/25 07:11:19;;;;;;;23.75;14.73;;;;;1.90;99999.00;;;;4919534;29;20044;-61
2023/01/25 07:13:46;;;;;;;23.58;14.52;;;;;1.90;99995.00;;;;4936083;29;20048;-61
2023/01/25 07:16:16;;;;;;;24.70;15.07;;;;;1.90;100000.00;;;;4935713;29;20047;-61
2023/01/25 07:18:43;;;;;;;26.77;15.00;;;;;2.00;99998.00;;;;4936098;29;20057;-62
2023/01/25 07:21:15;;;;;;;20.58;14.25;;;;;2.00;100000.00;;;;4936583;29;20445;-62
2023/01/25 07:23:42;;;;;;;21.23;13.15;;;;;2.00;100006.00;;;;4936258;29;20469;-62
2023/01/25 07:26:14;;;;;;;22.42;13.98;;;;;1.90;100002.00;;;;4935989;29;20143;-62
2023/01/25 07:28:40;;;;;;;23.77;14.77;;;;;2.00;99996.00;;;;4919409;29;20390;-61
2023/01/25 07:31:07;;;;;;;25.77;15.48;;;;;2.10;100004.00;;;;4936739;29;20103;-62
2023/01/25 07:33:34;;;;;;;22.00;14.23;;;;;2.20;100009.00;;;;4919466;29;20051;-61
2023/01/25 07:36:03;;;;;;;21.50;13.50;;;;;2.20;100003.00;;;;4919110;29;20055;-62
2023/01/25 07:38:30;;;;;;;19.45;12.57;;;;;2.10;99995.00;;;;4936421;29;20047;-61
2023/01/25 07:40:56;;;;;;;18.98;12.13;;;;;2.10;99993.00;;;;4935915;29;20404;-62
2023/01/25 07:43:24;;;;;;;19.48;12.25;;;;;2.10;99994.00;;;;4935690;29;20054;-62
2023/01/25 07:45:51;;;;;;;18.02;11.75;;;;;2.10;99991.00;;;;4918233;29;20497;-62
2023/01/25 07:48:19;;;;;;;20.10;11.98;;;;;2.10;99995.00;;;;4935810;29;20048;-62
2023/01/25 07:51:10;;;;;;;16.20;9.55;;;;;2.10;99993.00;;;;4935607;29;20401;-63
2023/01/25 07:53:43;;;;;;;16.38;9.95;;;;;2.10;100001.00;;;;4935757;29;20453;-63
2023/01/25 07:56:11;;;;;;;15.60;10.50;;;;;2.10;99989.00;;;;4935095;29;20050;-62
2023/01/25 07:58:41;;;;;;;12.27;7.85;;;;;2.00;99992.00;;;;4918533;29;20062;-63
2023/01/25 08:01:09;;;;;;;10.70;7.95;;;;;1.90;99994.00;;;;4935541;29;20055;-62
2023/01/25 08:03:36;;;;;;;11.02;7.38;;;;;2.00;99994.00;;;;4935163;29;20079;-62
2023/01/25 08:06:08;;;;;;;13.60;8.55;;;;;2.00;99996.00;;;;4934979;29;20450;-61
2023/01/25 08:08:42;;;;;;;12.70;8.38;;;;;2.10;99999.00;;;;4935333;29;20059;-61
2023/01/25 08:11:14;;;;;;;11.25;7.25;;;;;2.00;99995.00;;;;4935331;29;20043;-61
2023/01/25 08:13:45;;;;;;;12.65;8.25;;;;;2.00;99999.00;;;;4902131;29;20138;-62
2023/01/25 08:16:17;;;;;;;10.68;7.43;;;;;2.10;99996.00;;;;4934834;29;20044;-62
2023/01/25 08:18:50;;;;;;;12.35;8.40;;;;;2.10;99983.00;;;;4917883;29;20099;-63
2023/01/25 08:21:17;;;;;;;14.32;9.50;;;;;2.10;99983.00;;;;4934929;29;20039;-63
2023/01/25 08:23:44;;;;;;;14.75;9.70;;;;;2.10;99983.00;;;;4934945;29;20048;-63
2023/01/25 08:26:13;;;;;;;14.88;10.13;;;;;2.10;99985.00;;;;4934541;29;20044;-63
2023/01/25 08:28:40;;;;;;;16.20;10.18;;;;;2.20;99992.00;;;;4918126;29;20049;-63
2023/01/25 08:31:18;;;;;;;14.48;9.15;;;;;2.20;99987.00;;;;4918057;29;20048;-63
2023/01/25 08:33:45;;;;;;;14.10;9.43;;;;;2.10;99988.00;;;;4934957;29;20134;-62
2023/01/25 08:36:13;;;;;;;14.23;9.35;;;;;2.10;99985.00;;;;4934446;29;20050;-62
2023/01/25 08:38:40;;;;;;;11.30;7.53;;;;;2.10;99978.00;;;;4934921;29;20044;-60
2023/01/25 08:41:16;;;;;;;11.43;7.95;;;;;2.00;99979.00;;;;4917963;29;20040;-60
2023/01/25 08:43:43;;;;;;;13.05;8.75;;;;;1.90;99978.00;;;;4917926;29;20052;-61
2023/01/25 08:46:11;;;;;;;15.70;9.77;;;;;2.00;99976.00;;;;4934106;29;20054;-62
2023/01/25 08:48:37;;;;;;;15.38;11.10;;;;;2.00;99978.00;;;;4934755;29;20470;-62
2023/01/25 08:51:07;;;;;;;17.95;12.00;;;;;2.00;99985.00;;;;4934714;29;20043;-61
2023/01/25 08:53:33;;;;;;;18.80;12.05;;;;;2.00;99973.00;;;;4934607;29;20532;-62
2023/01/25 08:56:11;;;;;;;17.77;11.60;;;;;2.10;99981.00;;;;4917079;29;20050;-62
2023/01/25 08:58:40;;;;;;;16.40;11.07;;;;;2.20;99965.00;;;;4934730;29;20501;-62
2023/01/25 09:01:08;;;;;;;24.55;14.38;;;;;2.20;99972.00;;;;4917363;29;20055;-62
2023/01/25 09:03:36;;;;;;;19.83;12.57;;;;;2.20;99972.00;;;;4934691;29;20106;-62
2023/01/25 09:06:04;;;;;;;17.40;11.25;;;;;2.20;99969.00;;;;4916954;29;20063;-61
2023/01/25 09:08:31;;;;;;;19.63;12.48;;;;;2.30;99966.00;;;;4934541;29;20497;-62
2023/01/25 09:11:11;;;;;;;18.35;12.05;;;;;2.30;99971.00;;;;4918225;29;20044;-63
2023/01/25 09:13:42;;;;;;;15.77;11.25;;;;;2.20;99961.00;;;;4918686;29;20059;-62
2023/01/25 09:16:27;;;;;;;15.88;10.82;;;;;2.20;99963.00;;;;4935247;29;20051;-61
2023/01/25 09:18:57;;;;;;;18.83;11.77;;;;;2.30;99970.00;;;;4935723;29;20560;-61
2023/01/25 09:21:24;;;;;;;15.52;10.18;;;;;2.30;99972.00;;;;4934814;29;20044;-62
2023/01/25 09:23:54;;;;;;;15.10;9.73;;;;;2.20;99969.00;;;;4934541;29;20047;-62
2023/01/25 09:26:39;;;;;;;13.63;8.98;;;;;2.10;99966.00;;;;4937368;29;20047;-63
2023/01/25 09:29:07;;;;;;;14.60;9.85;;;;;2.10;99968.00;;;;4906683;29;20111;-64
2023/01/25 09:31:38;;;;;;;14.25;9.75;;;;;2.20;99970.00;;;;4906112;29;20050;-61
2023/01/25 09:34:24;;;;;;;13.48;9.18;;;;;2.20;99960.00;;;;4925055;29;20071;-61
2023/01/25 09:36:59;;;;;;;14.40;9.63;;;;;2.20;99961.00;;;;4922489;29;20083;-62
2023/01/25 09:39:26;;;;;;;14.45;10.02;;;;;2.10;99971.00;;;;4939882;29;20058;-61
2023/01/25 09:42:17;;;;;;;13.23;9.63;;;;;2.00;99964.00;;;;4939857;29;20043;-60
2023/01/25 09:45:16;;;;;;;21.58;13.27;;;;;1.90;99968.00;;;;4943949;29;20047;-59
2023/01/25 09:47:58;;;;;;;14.23;9.57;;;;;2.00;99959.00;;;;4924339;29;20505;-61
2023/01/25 09:50:33;;;;;;;14.13;9.15;;;;;2.00;99963.00;;;;4922873;29;20047;-61
2023/01/25 09:53:24;;;;;;;15.07;9.68;;;;;1.90;99963.00;;;;4923086;29;20058;-62
2023/01/25 09:55:58;;;;;;;18.52;10.82;;;;;1.90;99963.00;;;;4940021;29;20112;-61
2023/01/25 09:58:35;;;;;;;18.92;11.82;;;;;1.90;99966.00;;;;4907044;29;20516;-61
2023/01/25 10:01:18;;;;;;;18.15;11.52;;;;;1.80;99961.00;;;;4920824;29;20202;-61
2023/01/25 10:04:18;;;;;;;20.15;12.23;;;;;1.90;99961.00;;;;4922456;29;20497;-59
2023/01/25 10:06:51;;;;;;;22.85;12.18;;;;;1.80;99958.00;;;;4937767;29;20055;-60
2023/01/25 10:09:38;;;;;;;24.83;15.02;;;;;1.90;99962.00;;;;4937338;29;20049;-61
2023/01/25 10:12:15;;;;;;;28.77;16.90;;;;;1.90;99957.00;;;;4937512;29;20431;-58
2023/01/25 10:14:41;;;;;;;27.25;15.90;;;;;2.00;99952.00;;;;4919856;29;20415;-61
2023/01/25 10:17:35;;;;;;;27.73;15.07;;;;;2.00;99951.00;;;;4920120;29;20059;-60
2023/01/25 10:20:35;;;;;;;27.73;15.00;;;;;1.90;99953.00;;;;4937238;29;20052;-60
2023/01/25 10:23:26;;;;;;;32.08;17.00;;;;;1.80;99949.00;;;;4934528;29;20059;-60
2023/01/25 10:26:21;;;;;;;33.40;17.35;;;;;1.80;99939.00;;;;4937068;29;20051;-60
2023/01/25 10:29:06;;;;;;;35.03;18.33;;;;;1.70;99942.00;;;;4934733;29;20066;-60
2023/01/25 10:31:47;;;;;;;36.28;17.33;;;;;1.70;99930.00;;;;4938175;29;20071;-59
2023/01/25 10:34:19;;;;;;;32.78;17.90;;;;;1.80;99925.00;;;;4936690;29;20066;-59
2023/01/25 10:36:52;;;;;;;35.90;18.55;;;;;1.80;99926.00;;;;4936252;29;20051;-59
2023/01/25 10:39:19;;;;;;;29.70;15.48;;;;;1.80;99931.00;;;;4937028;29;20048;-59
2023/01/25 10:41:57;;;;;;;25.83;14.98;;;;;1.70;99914.00;;;;4936560;29;20044;-60
2023/01/25 10:44:27;;;;;;;24.30;14.07;;;;;1.60;99910.00;;;;4936119;29;20055;-59
2023/01/25 10:46:56;;;;;;;27.08;13.82;;;;;1.70;99899.00;;;;4936606;29;20039;-60
2023/01/25 10:49:28;;;;;;;26.58;14.57;;;;;1.70;99906.00;;;;4936761;29;20195;-61
2023/01/25 10:51:56;;;;;;;25.17;13.75;;;;;1.70;99899.00;;;;4937236;29;20127;-62
2023/01/25 10:54:23;;;;;;;27.73;15.82;;;;;1.80;99883.00;;;;4936223;29;20393;-62
2023/01/25 10:56:50;;;;;;;24.10;12.75;;;;;1.70;99889.00;;;;4936428;29;20051;-61
2023/01/25 10:59:19;;;;;;;23.42;14.55;;;;;1.60;99875.00;;;;4903959;29;20047;-60
2023/01/25 11:01:45;;;;;;;26.77;14.98;;;;;1.70;99885.00;;;;4936254;29;20461;-61
2023/01/25 11:04:23;;;;;;;24.42;14.18;;;;;1.70;99879.00;;;;4936710;29;20052;-61
2023/01/25 11:06:51;;;;;;;23.27;13.20;;;;;1.70;99874.00;;;;4919678;29;20416;-61
2023/01/25 11:09:30;;;;;;;23.38;13.40;;;;;1.70;99875.00;;;;4936744;29;20044;-61
2023/01/25 11:11:59;;;;;;;24.63;14.43;;;;;1.80;99863.00;;;;4936835;29;20040;-61
2023/01/25 11:14:29;;;;;;;26.33;14.88;;;;;1.70;99859.00;;;;4918828;29;20055;-61
2023/01/25 11:16:57;;;;;;;29.52;15.52;;;;;1.70;99855.00;;;;4919250;29;20039;-61
2023/01/25 11:19:29;;;;;;;26.73;15.23;;;;;1.70;99848.00;;;;4935979;29;20059;-62
2023/01/25 11:21:58;;;;;;;29.50;15.38;;;;;1.70;99852.00;;;;4935815;29;20044;-61
2023/01/25 11:24:27;;;;;;;28.23;15.20;;;;;1.70;99850.00;;;;4918337;29;20099;-61
2023/01/25 11:27:18;;;;;;;26.10;15.05;;;;;1.70;99854.00;;;;4935858;29;20078;-61
2023/01/25 11:30:05;;;;;;;22.42;14.13;;;;;1.70;99839.00;;;;4903388;29;20083;-61
2023/01/25 11:32:33;;;;;;;28.20;15.23;;;;;1.70;99839.00;;;;4935682;29;20126;-61
2023/01/25 11:34:59;;;;;;;26.63;15.45;;;;;1.70;99830.00;;;;4935192;29;20048;-61
2023/01/25 11:38:05;;;;;;;23.77;13.85;;;;;1.70;99833.00;;;;4935770;29;20051;-61
2023/01/25 11:40:47;;;;;;;25.70;15.05;;;;;1.70;99823.00;;;;4935852;29;20386;-61
2023/01/25 11:43:20;;;;;;;27.02;15.43;;;;;1.70;99820.00;;;;4935913;29;20127;-61
2023/01/25 11:45:55;;;;;;;27.35;15.00;;;;;1.80;99818.00;;;;4935147;29;20058;-61
2023/01/25 11:48:46;;;;;;;33.05;16.27;;;;;1.80;99809.00;;;;4935070;29;20444;-61
2023/01/25 11:51:28;;;;;;;29.38;14.45;;;;;1.70;99802.00;;;;4936244;29;20055;-62
2023/01/25 11:54:11;;;;;;;27.77;15.07;;;;;1.70;99797.00;;;;4918916;29;20056;-61
2023/01/25 11:56:56;;;;;;;26.73;14.18;;;;;1.70;99796.00;;;;4935405;29;20039;-62
2023/01/25 11:59:41;;;;;;;31.77;15.82;;;;;1.70;99788.00;;;;4935524;29;20118;-62
2023/01/25 12:02:38;;;;;;;28.45;15.32;;;;;1.70;99779.00;;;;4935066;29;20054;-63
2023/01/25 12:05:32;;;;;;;31.23;16.95;;;;;1.90;99781.00;;;;4934768;29;20098;-61
2023/01/25 12:08:02;;;;;;;31.95;17.27;;;;;1.90;99766.00;;;;4935179;29;20047;-62
2023/01/25 12:11:07;;;;;;;29.58;16.33;;;;;1.90;99766.00;;;;4935142;29;20052;-62
2023/01/25 12:14:00;;;;;;;;;;;;;1.90;99773.00;;;;4935728;29;20044;-62
2023/01/25 12:16:51;;;;;;;28.33;14.27;;;;;1.70;99759.00;;;;4919386;29;19927;-61
2023/01/25 12:19:37;;;;;;;28.33;14.73;;;;;1.70;99752.00;;;;4935176;29;20417;-61
2023/01/25 12:22:36;;;;;;;30.75;16.23;;;;;1.70;99748.00;;;;4934924;29;20032;-61
2023/01/25 12:25:28;;;;;;;33.08;16.10;;;;;1.70;99745.00;;;;4918078;29;20067;-62
2023/01/25 12:28:12;;;;;;;33.75;16.10;;;;;1.70;99728.00;;;;4935069;29;20521;-61